Time;durP1;ratioP1;P1;durP2;ratioP2;P2;SDS_P1;SDS_P2;PMS_P1;PMS_P2;Temp;Humidity;BMP_temperature;BMP_pressure;BME280_temperature;BME280_humidity;BME280_pressure;Samples;Min_cycle;Max_cycle;Signal;HPM_P1;HPM_P2
2022/08/29 00:00:59;;;;;;;4.18;3.08;;;24.50;92.20;;;;;;5017039;28;20025;-24
2022/08/29 00:03:25;;;;;;;3.92;3.00;;;24.50;92.20;;;;;;5035491;28;20155;-24
2022/08/29 00:05:51;;;;;;;3.58;2.88;;;24.50;92.30;;;;;;5035557;28;20060;-24
2022/08/29 00:08:17;;;;;;;5.25;3.05;;;24.50;92.20;;;;;;5034363;28;20021;-24
2022/08/29 00:10:42;;;;;;;4.35;3.08;;;24.50;92.20;;;;;;5035249;28;20025;-24
2022/08/29 00:13:09;;;;;;;5.35;3.25;;;24.50;92.20;;;;;;5035684;28;20036;-24
2022/08/29 00:15:36;;;;;;;3.53;2.83;;;24.50;92.20;;;;;;5035578;28;20029;-24
2022/08/29 00:18:02;;;;;;;3.53;3.22;;;24.50;92.20;;;;;;5035378;28;20112;-24
2022/08/29 00:20:31;;;;;;;5.07;3.60;;;24.50;92.20;;;;;;5034896;28;20438;-24
2022/08/29 00:22:58;;;;;;;4.00;3.10;;;24.50;92.20;;;;;;5034204;28;20034;-24
2022/08/29 00:25:24;;;;;;;4.22;3.15;;;24.50;92.50;;;;;;5016410;28;20079;-23
2022/08/29 00:27:50;;;;;;;3.42;2.90;;;24.50;92.20;;;;;;5034324;28;20021;-24
2022/08/29 00:30:17;;;;;;;3.83;3.03;;;24.50;92.20;;;;;;5033672;28;20395;-24
2022/08/29 00:32:43;;;;;;;4.57;3.33;;;24.50;92.20;;;;;;5034195;28;20033;-24
2022/08/29 00:35:12;;;;;;;3.97;2.97;;;24.50;92.20;;;;;;5034089;28;20029;-24
2022/08/29 00:37:38;;;;;;;3.47;2.70;;;24.50;92.10;;;;;;5033988;28;20026;-24
2022/08/29 00:40:05;;;;;;;4.22;2.72;;;24.50;92.10;;;;;;5033559;28;20412;-24
2022/08/29 00:42:31;;;;;;;4.57;2.78;;;24.50;92.10;;;;;;5033925;28;20183;-24
2022/08/29 00:44:57;;;;;;;4.10;3.00;;;24.50;92.10;;;;;;5033713;28;20594;-24
2022/08/29 00:47:31;;;;;;;3.47;2.83;;;24.40;92.10;;;;;;5033838;28;20471;-23
2022/08/29 00:49:58;;;;;;;3.15;2.75;;;24.40;92.10;;;;;;5033491;28;20021;-23
2022/08/29 00:52:33;;;;;;;3.10;2.80;;;24.40;92.10;;;;;;5033529;28;20025;-23
2022/08/29 00:55:00;;;;;;;3.20;2.70;;;24.40;92.00;;;;;;5033689;28;20029;-24
2022/08/29 00:57:29;;;;;;;2.97;2.65;;;24.40;92.00;;;;;;5032469;28;20028;-24
2022/08/29 00:59:56;;;;;;;3.35;2.97;;;24.40;92.00;;;;;;5033375;28;20076;-24
2022/08/29 01:02:21;;;;;;;4.05;2.92;;;24.40;92.00;;;;;;5033511;28;20025;-24
2022/08/29 01:04:47;;;;;;;4.30;3.00;;;24.40;92.00;;;;;;5033524;28;20034;-24
2022/08/29 01:07:13;;;;;;;3.08;2.88;;;24.40;92.00;;;;;;5033462;28;20032;-24
2022/08/29 01:09:41;;;;;;;3.92;2.67;;;24.40;92.00;;;;;;5033093;28;20478;-24
2022/08/29 01:12:16;;;;;;;3.42;3.10;;;24.40;92.00;;;;;;5033015;28;20022;-24
2022/08/29 01:14:57;;;;;;;3.60;3.08;;;24.40;92.00;;;;;;5033259;28;20022;-24
2022/08/29 01:17:33;;;;;;;3.47;2.90;;;24.40;92.00;;;;;;5033170;28;20504;-23
2022/08/29 01:20:04;;;;;;;4.25;3.10;;;24.40;92.00;;;;;;5032871;28;20052;-24
2022/08/29 01:23:08;;;;;;;3.10;2.80;;;24.30;92.00;;;;;;5032917;28;20029;-24
2022/08/29 01:25:40;;;;;;;3.30;3.00;;;24.40;92.00;;;;;;5033189;28;20029;-24
2022/08/29 01:28:26;;;;;;;3.67;2.80;;;24.40;92.00;;;;;;5032814;28;20065;-24
2022/08/29 01:31:00;;;;;;;4.63;3.03;;;24.40;92.00;;;;;;5032493;28;20037;-24
2022/08/29 01:33:28;;;;;;;3.85;2.70;;;24.40;91.90;;;;;;5015131;28;20026;-24
2022/08/29 01:35:54;;;;;;;5.28;3.28;;;24.40;91.90;;;;;;5032816;28;20028;-24
2022/08/29 01:38:26;;;;;;;3.88;2.63;;;24.30;91.90;;;;;;5014666;28;20026;-24
2022/08/29 01:40:59;;;;;;;4.43;3.50;;;24.30;91.90;;;;;;5032577;28;20095;-24
2022/08/29 01:43:25;;;;;;;3.35;2.78;;;24.30;91.90;;;;;;5032555;28;20103;-24
2022/08/29 01:45:52;;;;;;;3.05;2.70;;;24.30;91.90;;;;;;5032632;28;20022;-24
2022/08/29 01:48:18;;;;;;;4.07;2.97;;;24.30;91.90;;;;;;5032543;28;20411;-23
2022/08/29 01:50:45;;;;;;;3.00;2.70;;;24.30;91.90;;;;;;5032372;28;20029;-23
2022/08/29 01:53:12;;;;;;;3.03;2.50;;;24.30;91.90;;;;;;5032563;28;20092;-23
2022/08/29 01:55:38;;;;;;;3.42;2.58;;;24.30;91.90;;;;;;5032465;28;20022;-23
2022/08/29 01:58:05;;;;;;;5.30;3.22;;;24.30;91.90;;;;;;5032219;28;20542;-23
2022/08/29 02:00:30;;;;;;;3.15;2.85;;;24.30;91.90;;;;;;5032297;28;20029;-23
2022/08/29 02:02:59;;;;;;;2.97;2.67;;;24.30;91.80;;;;;;5032407;28;20096;-23
2022/08/29 02:05:26;;;;;;;3.63;3.00;;;24.20;91.80;;;;;;5032258;28;20376;-23
2022/08/29 02:07:53;;;;;;;3.10;2.80;;;24.30;91.80;;;;;;5032057;28;20479;-23
2022/08/29 02:10:19;;;;;;;3.70;2.75;;;24.30;91.80;;;;;;5034831;28;20033;-23
2022/08/29 02:12:44;;;;;;;3.20;2.78;;;24.30;91.80;;;;;;5034683;28;20116;-23
2022/08/29 02:15:10;;;;;;;4.60;2.75;;;24.30;91.80;;;;;;5032759;28;20018;-24
2022/08/29 02:17:37;;;;;;;5.07;3.10;;;24.30;91.80;;;;;;5032594;28;20426;-24
2022/08/29 02:20:07;;;;;;;3.70;2.60;;;24.30;91.80;;;;;;5032034;28;20064;-24
2022/08/29 02:22:36;;;;;;;3.97;3.10;;;24.30;91.80;;;;;;5014546;28;20057;-24
2022/08/29 02:25:40;;;;;;;3.13;2.63;;;24.30;91.70;;;;;;5032038;28;20021;-24
2022/08/29 02:27:51;;;;;;;3.88;2.97;;;24.20;91.70;;;;;;5032145;28;20034;-24
2022/08/29 02:30:21;;;;;;;3.47;2.67;;;24.30;91.70;;;;;;5014203;28;20029;-24
2022/08/29 02:32:47;;;;;;;4.68;2.72;;;24.20;91.70;;;;;;5032014;28;20025;-24
2022/08/29 02:35:13;;;;;;;2.90;2.60;;;24.20;91.70;;;;;;5032008;28;20387;-24
2022/08/29 02:37:39;;;;;;;3.65;3.03;;;24.20;91.60;;;;;;5031893;28;20059;-24
2022/08/29 02:40:05;;;;;;;3.58;2.90;;;24.20;91.60;;;;;;5031683;28;20033;-24
2022/08/29 02:42:31;;;;;;;3.58;2.55;;;24.20;91.60;;;;;;5031984;28;20032;-24
2022/08/29 02:44:56;;;;;;;2.88;2.58;;;24.20;91.60;;;;;;5031995;28;20029;-24
2022/08/29 02:47:22;;;;;;;4.35;3.00;;;24.20;91.60;;;;;;5032092;28;20493;-24
2022/08/29 02:49:48;;;;;;;3.35;2.67;;;24.20;91.60;;;;;;5031990;28;20124;-24
2022/08/29 02:52:13;;;;;;;3.22;2.67;;;24.20;91.60;;;;;;5031691;28;20025;-23
2022/08/29 02:54:39;;;;;;;3.28;2.60;;;24.20;91.60;;;;;;5031946;28;20383;-24
2022/08/29 02:57:05;;;;;;;3.95;2.85;;;24.20;91.50;;;;;;5032068;28;20030;-24
2022/08/29 02:59:31;;;;;;;2.72;2.38;;;24.20;91.50;;;;;;5031725;28;20072;-24
2022/08/29 03:01:56;;;;;;;3.08;2.50;;;24.20;91.50;;;;;;5031789;28;20399;-24
2022/08/29 03:04:22;;;;;;;3.38;3.00;;;24.20;91.50;;;;;;5031990;28;20025;-24
2022/08/29 03:06:48;;;;;;;3.47;2.92;;;24.20;91.50;;;;;;5031699;28;20036;-24
2022/08/29 03:09:14;;;;;;;2.90;2.60;;;24.20;91.50;;;;;;5031985;28;20017;-24
2022/08/29 03:11:39;;;;;;;3.03;2.70;;;24.20;91.50;;;;;;5031662;28;20029;-24
2022/08/29 03:14:05;;;;;;;4.22;2.85;;;24.20;91.40;;;;;;5031772;28;20029;-24
2022/08/29 03:16:30;;;;;;;2.95;2.65;;;24.20;91.50;;;;;;5031737;28;20026;-23
2022/08/29 03:18:56;;;;;;;4.53;3.05;;;24.20;91.50;;;;;;5031529;28;20104;-24
2022/08/29 03:21:24;;;;;;;4.35;2.90;;;24.20;91.40;;;;;;5034036;28;20040;-24
2022/08/29 03:23:51;;;;;;;3.67;2.58;;;24.20;91.40;;;;;;5035661;28;20032;-24
2022/08/29 03:26:18;;;;;;;3.00;2.72;;;24.20;91.40;;;;;;5035426;28;20061;-24
2022/08/29 03:28:44;;;;;;;3.50;2.90;;;24.10;91.40;;;;;;5035242;28;20030;-24
2022/08/29 03:31:10;;;;;;;3.00;2.55;;;24.10;91.40;;;;;;5035137;28;20572;-24
2022/08/29 03:33:36;;;;;;;3.30;2.40;;;24.10;91.40;;;;;;5035276;28;20055;-24
2022/08/29 03:36:03;;;;;;;3.40;2.60;;;24.10;91.70;;;;;;5035108;28;20017;-24
2022/08/29 03:38:28;;;;;;;3.75;2.88;;;24.10;91.30;;;;;;5034899;28;20028;-24
2022/08/29 03:40:54;;;;;;;3.55;2.80;;;24.10;91.30;;;;;;5017323;28;20021;-25
2022/08/29 03:43:20;;;;;;;3.22;2.90;;;24.10;91.30;;;;;;5035137;28;20431;-23
2022/08/29 03:45:48;;;;;;;3.33;2.85;;;24.10;91.30;;;;;;5035030;28;20022;-24
2022/08/29 03:48:14;;;;;;;3.65;2.88;;;24.10;91.20;;;;;;5034751;28;20056;-23
2022/08/29 03:50:41;;;;;;;3.03;2.65;;;24.10;91.60;;;;;;5034650;28;20037;-24
2022/08/29 03:53:07;;;;;;;3.10;2.80;;;24.10;91.30;;;;;;5034882;28;20033;-24
2022/08/29 03:55:33;;;;;;;3.55;2.80;;;24.10;91.20;;;;;;5034884;28;20544;-23
2022/08/29 03:57:58;;;;;;;3.10;2.55;;;24.10;91.20;;;;;;5034871;28;20033;-24
2022/08/29 04:00:24;;;;;;;4.05;2.80;;;24.10;91.20;;;;;;5034558;28;20040;-23
2022/08/29 04:02:52;;;;;;;2.45;2.25;;;24.10;91.20;;;;;;5034750;28;20483;-24
2022/08/29 04:05:18;;;;;;;4.15;2.42;;;24.10;91.20;;;;;;5034703;28;20041;-23
2022/08/29 04:07:53;;;;;;;2.75;2.47;;;24.10;91.10;;;;;;5034733;28;20036;-24
2022/08/29 04:10:26;;;;;;;2.92;2.50;;;24.10;91.10;;;;;;5034512;28;20033;-23
2022/08/29 04:12:53;;;;;;;5.68;2.33;;;24.00;91.10;;;;;;5034600;28;20029;-24
2022/08/29 04:15:19;;;;;;;5.70;2.70;;;24.00;91.10;;;;;;5016807;28;20037;-24
2022/08/29 04:17:45;;;;;;;3.40;2.60;;;24.10;91.10;;;;;;5034376;28;20026;-24
2022/08/29 04:20:12;;;;;;;3.33;2.30;;;24.00;91.10;;;;;;5034119;28;20112;-23
2022/08/29 04:22:39;;;;;;;2.90;2.60;;;24.00;91.10;;;;;;5034373;28;20443;-23
2022/08/29 04:25:08;;;;;;;2.90;2.60;;;24.00;91.00;;;;;;5034537;28;20029;-24
2022/08/29 04:27:35;;;;;;;5.07;2.65;;;24.00;91.00;;;;;;5016580;28;20022;-23
2022/08/29 04:30:03;;;;;;;3.35;2.60;;;24.00;91.00;;;;;;5034073;28;20037;-23
2022/08/29 04:32:29;;;;;;;3.90;2.28;;;24.00;91.00;;;;;;5033854;28;20064;-23
2022/08/29 04:34:56;;;;;;;3.20;2.42;;;24.00;90.90;;;;;;5034459;28;20017;-23
2022/08/29 04:37:22;;;;;;;3.20;2.42;;;24.00;90.90;;;;;;5034457;28;20092;-23
2022/08/29 04:39:48;;;;;;;5.35;2.65;;;24.00;90.90;;;;;;5016189;28;20056;-24
2022/08/29 04:42:16;;;;;;;3.90;2.35;;;24.00;90.90;;;;;;5033944;28;20556;-23
2022/08/29 04:44:42;;;;;;;4.65;2.30;;;24.00;90.90;;;;;;5033793;28;20033;-24
2022/08/29 04:47:07;;;;;;;3.17;2.75;;;24.00;90.90;;;;;;5034210;28;20026;-23
2022/08/29 04:49:33;;;;;;;3.15;2.40;;;24.00;90.90;;;;;;5033629;28;20573;-24
2022/08/29 04:51:59;;;;;;;2.50;2.30;;;23.90;90.90;;;;;;5034174;28;20160;-24
2022/08/29 04:54:24;;;;;;;3.22;2.20;;;23.90;90.90;;;;;;5033925;28;20467;-24
2022/08/29 04:56:50;;;;;;;4.13;2.60;;;23.90;90.90;;;;;;5033658;28;20100;-23
2022/08/29 04:59:16;;;;;;;4.40;2.60;;;23.90;90.90;;;;;;5033440;28;20432;-23
2022/08/29 05:01:41;;;;;;;3.25;2.55;;;23.90;90.90;;;;;;5033859;28;20025;-23
2022/08/29 05:04:07;;;;;;;4.32;2.90;;;23.90;90.90;;;;;;5033594;28;20100;-23
2022/08/29 05:06:33;;;;;;;3.35;2.85;;;23.90;90.80;;;;;;5033567;28;20021;-24
2022/08/29 05:08:58;;;;;;;4.60;2.35;;;23.90;90.90;;;;;;5033331;28;20029;-23
2022/08/29 05:11:24;;;;;;;2.90;2.60;;;23.90;90.80;;;;;;5033470;28;20475;-23
2022/08/29 05:13:52;;;;;;;2.38;2.15;;;23.90;90.90;;;;;;5033420;28;20079;-24
2022/08/29 05:16:18;;;;;;;3.25;2.40;;;23.90;90.90;;;;;;5033541;28;20014;-24
2022/08/29 05:18:45;;;;;;;4.15;2.70;;;23.80;90.90;;;;;;5033208;28;20033;-23
2022/08/29 05:21:12;;;;;;;3.30;2.58;;;23.80;90.80;;;;;;5033647;28;20029;-23
2022/08/29 05:23:39;;;;;;;2.72;2.47;;;23.80;90.80;;;;;;5033347;28;20494;-23
2022/08/29 05:26:05;;;;;;;3.70;2.95;;;23.80;90.80;;;;;;5033404;28;20025;-24
2022/08/29 05:28:33;;;;;;;7.60;2.63;;;23.80;90.80;;;;;;5033002;28;20427;-23
2022/08/29 05:30:59;;;;;;;2.88;2.28;;;23.80;90.80;;;;;;5033065;28;20029;-24
2022/08/29 05:33:26;;;;;;;7.78;2.88;;;23.80;90.80;;;;;;5033634;28;20501;-23
2022/08/29 05:35:52;;;;;;;4.45;2.80;;;23.80;90.80;;;;;;5036782;28;20407;-23
2022/08/29 05:38:18;;;;;;;3.97;2.60;;;23.80;90.80;;;;;;5019479;28;20386;-24
2022/08/29 05:40:44;;;;;;;2.97;2.67;;;23.80;90.80;;;;;;5069786;22;20037;-25
2022/08/29 05:43:10;;;;;;;3.58;2.40;;;23.80;90.80;;;;;;5051997;28;20305;-25
2022/08/29 05:45:37;;;;;;;4.47;2.90;;;23.80;90.80;;;;;;5052948;28;20029;-25
2022/08/29 05:48:05;;;;;;;3.65;2.50;;;23.80;90.80;;;;;;5052448;28;20108;-25
2022/08/29 05:50:30;;;;;;;3.40;2.53;;;23.80;90.80;;;;;;5052219;28;20090;-25
2022/08/29 05:52:56;;;;;;;3.67;2.75;;;23.80;90.80;;;;;;5052432;28;20037;-25
2022/08/29 05:55:22;;;;;;;3.33;2.20;;;23.70;90.70;;;;;;5052407;28;20036;-26
2022/08/29 05:57:50;;;;;;;4.60;2.70;;;23.70;90.70;;;;;;5052276;28;20032;-25
2022/08/29 06:00:16;;;;;;;3.33;2.40;;;23.80;90.80;;;;;;5034107;28;20025;-25
2022/08/29 06:02:42;;;;;;;3.65;2.40;;;23.70;90.80;;;;;;5052160;28;20033;-26
2022/08/29 06:05:08;;;;;;;5.38;2.63;;;23.70;90.70;;;;;;5052213;28;20044;-25
2022/08/29 06:07:34;;;;;;;2.95;2.45;;;23.70;90.80;;;;;;5052173;28;20028;-26
2022/08/29 06:10:00;;;;;;;2.50;2.30;;;23.70;90.70;;;;;;5051901;28;20021;-25
2022/08/29 06:12:26;;;;;;;3.83;2.65;;;23.70;90.80;;;;;;5051928;28;20485;-26
2022/08/29 06:14:51;;;;;;;5.63;2.72;;;23.70;90.80;;;;;;5052312;28;20540;-26
2022/08/29 06:17:17;;;;;;;3.35;2.88;;;23.70;90.70;;;;;;5052019;28;20501;-26
2022/08/29 06:19:43;;;;;;;4.60;2.88;;;23.70;90.80;;;;;;5051883;28;20087;-25
2022/08/29 06:22:09;;;;;;;3.38;2.72;;;23.70;90.80;;;;;;5051954;28;20049;-25
2022/08/29 06:24:35;;;;;;;3.90;2.70;;;23.70;90.70;;;;;;5051925;28;20461;-26
2022/08/29 06:27:01;;;;;;;2.63;2.35;;;23.70;90.80;;;;;;5051823;28;20033;-25
2022/08/29 06:29:27;;;;;;;5.60;2.50;;;23.70;90.80;;;;;;5051604;28;20037;-25
2022/08/29 06:31:57;;;;;;;4.82;2.65;;;23.70;90.80;;;;;;5052044;28;20112;-25
2022/08/29 06:34:23;;;;;;;4.22;2.88;;;23.70;90.80;;;;;;5052013;28;20118;-26
2022/08/29 06:36:52;;;;;;;3.63;2.72;;;23.70;90.80;;;;;;5051856;28;20056;-25
2022/08/29 06:39:18;;;;;;;4.22;2.78;;;23.70;90.80;;;;;;5051479;28;20037;-26
2022/08/29 06:41:44;;;;;;;2.53;2.30;;;23.70;90.80;;;;;;5051648;28;20056;-25
2022/08/29 06:44:09;;;;;;;3.22;2.50;;;23.70;90.80;;;;;;5051836;28;20057;-25
2022/08/29 06:46:39;;;;;;;3.05;2.63;;;23.70;90.80;;;;;;5051677;28;20044;-26
2022/08/29 06:49:07;;;;;;;4.20;2.53;;;23.70;90.80;;;;;;5051513;28;20017;-26
2022/08/29 06:51:35;;;;;;;5.97;3.60;;;23.70;90.80;;;;;;5051532;28;20115;-25
2022/08/29 06:54:04;;;;;;;11.73;4.13;;;23.50;88.60;;;;;;5052243;28;20390;-26
2022/08/29 06:56:31;;;;;;;6.38;3.30;;;23.00;89.60;;;;;;5055647;28;20086;-25
2022/08/29 06:58:56;;;;;;;7.95;3.28;;;22.90;90.30;;;;;;5055442;28;20057;-25
2022/08/29 07:01:22;;;;;;;8.38;3.22;;;23.00;90.50;;;;;;5037755;28;20064;-26
2022/08/29 07:03:51;;;;;;;8.27;3.42;;;23.10;90.50;;;;;;5055614;28;20032;-25
2022/08/29 07:06:17;;;;;;;9.10;3.42;;;23.20;90.40;;;;;;5055566;28;20044;-25
2022/08/29 07:08:43;;;;;;;6.85;2.95;;;23.30;90.20;;;;;;5055237;28;20470;-26
2022/08/29 07:11:09;;;;;;;6.32;3.10;;;23.40;90.10;;;;;;5055192;28;20560;-25
2022/08/29 07:13:35;;;;;;;5.47;3.08;;;23.50;89.90;;;;;;5055428;28;20040;-26
2022/08/29 07:16:01;;;;;;;7.03;3.25;;;23.50;89.80;;;;;;5055293;28;20029;-26
2022/08/29 07:18:26;;;;;;;5.38;3.47;;;23.50;89.80;;;;;;5055316;28;20027;-25
2022/08/29 07:20:53;;;;;;;5.57;2.83;;;23.60;89.80;;;;;;5055079;28;20024;-25
2022/08/29 07:23:20;;;;;;;5.80;3.50;;;23.60;89.90;;;;;;5054965;28;20040;-25
2022/08/29 07:25:46;;;;;;;9.25;4.05;;;23.60;90.00;;;;;;5054969;28;20355;-25
2022/08/29 07:28:12;;;;;;;15.38;4.30;;;23.60;90.10;;;;;;5054921;28;20083;-25
2022/08/29 07:30:37;;;;;;;13.93;4.10;;;23.40;90.00;;;;;;5054803;28;20037;-26
2022/08/29 07:33:03;;;;;;;9.68;3.53;;;23.30;90.30;;;;;;5055044;28;20108;-25
2022/08/29 07:35:28;;;;;;;13.90;3.55;;;23.30;90.30;;;;;;5055095;28;20025;-26
2022/08/29 07:38:00;;;;;;;7.28;3.40;;;23.40;90.30;;;;;;5054836;28;20458;-25
2022/08/29 07:40:25;;;;;;;9.52;3.53;;;23.40;90.30;;;;;;5054591;28;20054;-25
2022/08/29 07:42:51;;;;;;;7.63;3.53;;;23.50;90.20;;;;;;5054833;28;20025;-26
2022/08/29 07:45:17;;;;;;;7.13;3.20;;;23.50;90.20;;;;;;5054811;28;20029;-25
2022/08/29 07:47:43;;;;;;;7.93;3.58;;;23.60;90.20;;;;;;5054760;28;20024;-25
2022/08/29 07:50:12;;;;;;;11.20;3.58;;;23.60;90.20;;;;;;5054485;28;20484;-26
2022/08/29 07:52:38;;;;;;;9.43;3.13;;;23.70;90.20;;;;;;5054493;28;20033;-25
2022/08/29 07:55:06;;;;;;;6.45;3.45;;;23.70;90.10;;;;;;5054710;28;20025;-25
2022/08/29 07:57:32;;;;;;;7.32;3.20;;;23.80;90.10;;;;;;5054570;28;20470;-25
2022/08/29 07:59:59;;;;;;;10.35;3.28;;;23.80;90.10;;;;;;5054246;28;20153;-25
2022/08/29 08:02:24;;;;;;;6.50;2.65;;;23.80;90.10;;;;;;5054512;28;20036;-25
2022/08/29 08:04:50;;;;;;;7.13;3.08;;;23.90;90.10;;;;;;5054519;28;20025;-25
2022/08/29 08:07:17;;;;;;;5.22;3.10;;;23.90;90.10;;;;;;5053635;28;20029;-26
2022/08/29 08:09:43;;;;;;;6.75;3.42;;;23.90;90.10;;;;;;5054186;28;20024;-25
2022/08/29 08:12:09;;;;;;;8.38;3.33;;;23.90;90.10;;;;;;5054174;28;20385;-25
2022/08/29 08:14:35;;;;;;;4.88;3.00;;;23.90;90.10;;;;;;5054246;28;20021;-25
2022/08/29 08:17:01;;;;;;;5.47;2.97;;;23.90;90.10;;;;;;5054227;28;20032;-25
2022/08/29 08:19:27;;;;;;;6.70;3.00;;;23.90;90.10;;;;;;5053944;28;20389;-25
2022/08/29 08:21:53;;;;;;;7.03;2.97;;;23.90;90.10;;;;;;5053972;28;20474;-25
2022/08/29 08:24:19;;;;;;;6.03;3.13;;;24.00;90.10;;;;;;5054102;28;20028;-26
2022/08/29 08:26:48;;;;;;;6.03;2.90;;;24.00;90.10;;;;;;5054064;28;20064;-26
2022/08/29 08:29:15;;;;;;;4.07;2.50;;;24.00;90.20;;;;;;5054137;28;20020;-25
2022/08/29 08:31:48;;;;;;;4.75;2.90;;;24.00;90.20;;;;;;5053811;28;20032;-25
2022/08/29 08:34:15;;;;;;;3.60;2.65;;;24.00;90.20;;;;;;5053836;28;20432;-25
2022/08/29 08:36:42;;;;;;;4.63;3.20;;;24.10;90.20;;;;;;5053856;28;20143;-26
2022/08/29 08:39:08;;;;;;;5.65;2.95;;;24.00;90.20;;;;;;5053435;28;20466;-26
2022/08/29 08:41:43;;;;;;;4.82;3.00;;;24.10;90.20;;;;;;5053768;28;20436;-26
2022/08/29 08:44:21;;;;;;;4.45;2.72;;;24.10;90.20;;;;;;5053670;28;20040;-25
2022/08/29 08:46:50;;;;;;;5.00;2.65;;;24.10;90.20;;;;;;5053518;28;20027;-26
2022/08/29 08:49:26;;;;;;;3.92;2.60;;;24.10;90.20;;;;;;5053507;28;20474;-25
2022/08/29 08:51:58;;;;;;;5.63;2.88;;;24.10;90.20;;;;;;5053470;28;20035;-25
2022/08/29 08:54:27;;;;;;;5.55;2.88;;;24.10;90.20;;;;;;5053570;28;20070;-26
2022/08/29 08:57:09;;;;;;;5.07;2.63;;;24.20;90.20;;;;;;5053476;28;20043;-25
2022/08/29 08:59:47;;;;;;;6.78;3.35;;;24.20;90.20;;;;;;5053290;28;20089;-25
2022/08/29 09:02:35;;;;;;;14.10;4.15;;;24.20;90.20;;;;;;5053327;28;20052;-25
2022/08/29 09:05:33;;;;;;;16.50;4.75;;;24.20;90.40;;;;;;5053277;28;20025;-26
2022/08/29 09:08:28;;;;;;;11.57;4.18;;;24.20;90.40;;;;;;5048456;28;20033;-25
2022/08/29 09:11:02;;;;;;;;;;;24.30;90.80;;;;;;5053501;28;20458;-26
2022/08/29 09:13:28;;;;;;;16.60;4.43;;;24.40;90.90;;;;;;5053087;28;19919;-27
2022/08/29 09:15:57;;;;;;;12.35;4.00;;;24.50;91.10;;;;;;5052984;28;20025;-26
2022/08/29 09:18:26;;;;;;;10.45;3.83;;;24.50;91.20;;;;;;5051992;28;20498;-26
2022/08/29 09:20:53;;;;;;;9.13;3.70;;;24.60;91.20;;;;;;5052785;28;20025;-25
2022/08/29 09:23:21;;;;;;;7.82;3.80;;;24.60;91.40;;;;;;5052955;28;20025;-26
2022/08/29 09:25:47;;;;;;;8.90;3.65;;;24.70;91.40;;;;;;5052947;28;20029;-25
2022/08/29 09:28:13;;;;;;;8.95;3.97;;;24.60;91.50;;;;;;5052796;28;20021;-26
2022/08/29 09:30:42;;;;;;;8.70;3.90;;;24.60;91.60;;;;;;5052720;28;20017;-26
2022/08/29 09:33:15;;;;;;;8.20;4.05;;;24.70;91.70;;;;;;5052573;28;20028;-25
2022/08/29 09:35:45;;;;;;;7.15;4.13;;;24.70;91.70;;;;;;5052678;28;20025;-26
2022/08/29 09:38:17;;;;;;;9.88;4.35;;;24.70;91.90;;;;;;5052753;28;20024;-27
2022/08/29 09:40:49;;;;;;;5.60;3.63;;;24.70;91.90;;;;;;5052139;28;20393;-27
2022/08/29 09:43:40;;;;;;;7.40;3.53;;;24.70;91.90;;;;;;5052608;28;20029;-26
2022/08/29 09:46:09;;;;;;;7.63;3.28;;;24.80;92.00;;;;;;5052862;28;20029;-26
2022/08/29 09:48:40;;;;;;;5.15;3.08;;;24.80;92.10;;;;;;5052392;28;20029;-26
2022/08/29 09:51:20;;;;;;;7.68;3.75;;;24.80;92.10;;;;;;5052337;28;20398;-27
2022/08/29 09:53:46;;;;;;;5.85;3.30;;;24.90;92.10;;;;;;5052643;28;20155;-26
2022/08/29 09:56:23;;;;;;;6.07;3.30;;;24.90;92.10;;;;;;5052313;28;20375;-26
2022/08/29 09:59:24;;;;;;;5.45;3.45;;;24.90;92.10;;;;;;5052318;28;20032;-26
2022/08/29 10:02:22;;;;;;;6.07;4.18;;;24.90;92.10;;;;;;5035192;28;20086;-26
2022/08/29 10:04:53;;;;;;;6.70;3.53;;;24.90;92.10;;;;;;5052325;28;20033;-25
2022/08/29 10:07:24;;;;;;;6.90;3.70;;;25.00;92.10;;;;;;5052237;28;20032;-26
2022/08/29 10:09:59;;;;;;;4.45;3.22;;;25.00;92.10;;;;;;5051977;28;20025;-26
2022/08/29 10:12:48;;;;;;;4.07;3.20;;;25.00;92.10;;;;;;5052247;28;20482;-26
2022/08/29 10:15:22;;;;;;;5.32;3.30;;;25.10;92.10;;;;;;5052017;28;20021;-27
2022/08/29 10:18:20;;;;;;;3.97;3.22;;;25.10;92.20;;;;;;5052109;28;20497;-26
2022/08/29 10:20:51;;;;;;;9.70;3.10;;;25.10;92.10;;;;;;5051991;28;20025;-26
2022/08/29 10:23:36;;;;;;;3.60;3.30;;;25.10;92.10;;;;;;5052300;28;20426;-26
2022/08/29 10:26:08;;;;;;;5.30;3.60;;;25.10;92.00;;;;;;5051966;28;20051;-26
2022/08/29 10:28:43;;;;;;;4.60;3.22;;;25.10;92.10;;;;;;5051698;28;20040;-26
2022/08/29 10:31:42;;;;;;;5.30;3.42;;;25.20;92.10;;;;;;5051631;28;20482;-27
2022/08/29 10:34:43;;;;;;;4.63;3.15;;;25.20;92.00;;;;;;5043981;28;20071;-27
2022/08/29 10:37:32;;;;;;;5.95;3.60;;;25.30;92.00;;;;;;5051723;28;20025;-26
2022/08/29 10:40:23;;;;;;;3.97;3.15;;;25.30;92.00;;;;;;5051423;28;20522;-26
2022/08/29 10:42:54;;;;;;;5.53;3.13;;;25.30;92.00;;;;;;5051808;28;20517;-27
2022/08/29 10:45:49;;;;;;;4.75;2.80;;;25.30;92.00;;;;;;5051757;28;20033;-26
2022/08/29 10:48:30;;;;;;;3.90;3.08;;;25.30;92.00;;;;;;5029998;28;20037;-26
2022/08/29 10:51:22;;;;;;;3.60;2.75;;;25.40;92.10;;;;;;5051640;28;20029;-26
2022/08/29 10:53:56;;;;;;;4.43;3.30;;;25.40;92.10;;;;;;5051530;28;20036;-26
2022/08/29 10:56:37;;;;;;;4.35;3.17;;;25.30;92.00;;;;;;5033710;28;20478;-26
2022/08/29 10:59:19;;;;;;;5.30;3.30;;;25.30;92.10;;;;;;5051380;28;20108;-28
2022/08/29 11:01:52;;;;;;;4.13;3.08;;;25.40;92.00;;;;;;5035568;28;20534;-28
2022/08/29 11:04:36;;;;;;;6.10;3.10;;;25.30;91.90;;;;;;5052014;28;20032;-27
2022/08/29 11:07:10;;;;;;;5.25;3.40;;;25.40;92.00;;;;;;5051610;28;20078;-27
2022/08/29 11:10:00;;;;;;;5.40;3.50;;;25.40;90.40;;;;;;5051586;28;20375;-26
2022/08/29 11:12:46;;;;;;;8.98;3.10;;;25.40;90.70;;;;;;5052174;28;20293;-27
2022/08/29 11:15:20;;;;;;;7.28;3.08;;;25.50;86.60;;;;;;5051193;28;20064;-27
2022/08/29 11:17:54;;;;;;;4.95;3.17;;;25.50;86.00;;;;;;5051519;28;20025;-26
2022/08/29 11:20:26;;;;;;;8.60;3.67;;;25.60;87.30;;;;;;5051620;28;20412;-26
2022/08/29 11:23:04;;;;;;;4.57;3.22;;;25.60;87.90;;;;;;5051352;28;20025;-26
2022/08/29 11:25:31;;;;;;;8.07;3.72;;;25.60;88.50;;;;;;5051390;28;20486;-26
2022/08/29 11:28:13;;;;;;;5.57;3.50;;;25.60;89.00;;;;;;5051340;28;20474;-26
2022/08/29 11:30:56;;;;;;;5.47;3.72;;;25.60;89.40;;;;;;5051119;28;20128;-27
2022/08/29 11:33:30;;;;;;;6.50;3.45;;;25.60;89.80;;;;;;5051177;28;20029;-27
2022/08/29 11:36:24;;;;;;;6.85;3.47;;;25.50;90.00;;;;;;5051356;28;20032;-27
2022/08/29 11:39:28;;;;;;;15.02;3.75;;;25.50;90.20;;;;;;5051123;28;20025;-27
2022/08/29 11:41:57;;;;;;;9.93;3.42;;;25.50;84.30;;;;;;5060072;22;20065;-23
2022/08/29 11:44:34;;;;;;;10.13;3.28;;;25.30;84.30;;;;;;5035103;28;20473;-24
2022/08/29 11:47:00;;;;;;;9.30;3.50;;;25.30;84.80;;;;;;5017427;28;20368;-24
2022/08/29 11:49:47;;;;;;;8.80;3.88;;;25.20;85.30;;;;;;5034901;28;20079;-24
2022/08/29 11:52:19;;;;;;;5.70;3.38;;;25.20;85.80;;;;;;5015158;28;20033;-24
2022/08/29 11:54:49;;;;;;;9.32;3.42;;;25.20;86.20;;;;;;5015172;28;20383;-23
2022/08/29 11:57:15;;;;;;;7.90;3.50;;;25.20;86.60;;;;;;5015139;28;20033;-23
2022/08/29 11:59:55;;;;;;;7.53;3.58;;;25.20;86.90;;;;;;5015034;28;20022;-23
2022/08/29 12:02:26;;;;;;;8.23;3.35;;;25.10;87.20;;;;;;5015216;28;20033;-23
2022/08/29 12:04:57;;;;;;;7.50;3.70;;;25.10;87.60;;;;;;5015145;28;20022;-23
2022/08/29 12:07:37;;;;;;;4.22;3.00;;;25.10;87.80;;;;;;5014949;28;20033;-23
2022/08/29 12:10:25;;;;;;;6.00;3.05;;;25.10;87.90;;;;;;5014773;28;20030;-23
2022/08/29 12:12:59;;;;;;;7.43;3.10;;;25.10;88.00;;;;;;4997179;28;20037;-23
2022/08/29 12:15:40;;;;;;;6.53;3.40;;;25.10;88.10;;;;;;5014857;28;20102;-23
2022/08/29 12:18:14;;;;;;;5.72;3.42;;;25.10;88.10;;;;;;5014917;28;20033;-24
2022/08/29 12:20:45;;;;;;;5.18;2.67;;;25.10;88.10;;;;;;5014558;28;20026;-24
2022/08/29 12:23:13;;;;;;;5.53;2.95;;;25.10;88.20;;;;;;4997046;28;20104;-24
2022/08/29 12:25:44;;;;;;;4.38;2.70;;;25.20;88.20;;;;;;5014691;28;20030;-24
2022/08/29 12:28:29;;;;;;;6.28;3.00;;;25.20;88.20;;;;;;5014499;28;20037;-25
2022/08/29 12:30:58;;;;;;;3.55;3.00;;;25.20;88.30;;;;;;5014446;28;20022;-24
2022/08/29 12:33:35;;;;;;;4.38;2.83;;;25.20;88.50;;;;;;5014465;28;20068;-24
2022/08/29 12:36:38;;;;;;;5.63;2.97;;;25.20;88.50;;;;;;5014549;28;20021;-24
2022/08/29 12:39:35;;;;;;;4.97;2.95;;;25.20;88.50;;;;;;5014216;28;20097;-24
2022/08/29 12:42:22;;;;;;;5.50;3.10;;;25.20;88.40;;;;;;4973200;28;20084;-24
2022/08/29 12:45:10;;;;;;;3.90;2.65;;;25.20;88.60;;;;;;5014215;28;20032;-25
2022/08/29 12:47:45;;;;;;;3.55;3.03;;;25.10;88.70;;;;;;5014372;28;20022;-24
2022/08/29 12:50:33;;;;;;;5.90;3.05;;;25.10;88.80;;;;;;5014064;28;20032;-24
2022/08/29 12:53:16;;;;;;;4.60;2.60;;;25.10;88.90;;;;;;5013755;28;20471;-24
2022/08/29 12:55:44;;;;;;;4.03;2.47;;;25.10;89.10;;;;;;5014181;28;20026;-24
2022/08/29 12:58:12;;;;;;;4.22;2.85;;;25.10;89.10;;;;;;4996419;28;20073;-24
2022/08/29 13:00:38;;;;;;;4.05;2.92;;;25.10;89.10;;;;;;5013904;28;20431;-24
2022/08/29 13:03:19;;;;;;;4.85;2.85;;;25.10;89.10;;;;;;5014017;28;20499;-24